sensor_id;sensor_type;location;lat;lon;timestamp;P1;durP1;ratioP1;P2;durP2;ratioP2
6372;SDS011;3219;51.362;7.074;2023-07-31T00:00:47;7.32;;;3.00;;
6372;SDS011;3219;51.362;7.074;2023-07-31T00:03:13;6.43;;;3.05;;
6372;SDS011;3219;51.362;7.074;2023-07-31T00:05:40;4.78;;;2.80;;
6372;SDS011;3219;51.362;7.074;2023-07-31T00:08:07;6.32;;;2.47;;
6372;SDS011;3219;51.362;7.074;2023-07-31T00:10:34;6.57;;;2.97;;
6372;SDS011;3219;51.362;7.074;2023-07-31T00:13:02;5.05;;;2.72;;
6372;SDS011;3219;51.362;7.074;2023-07-31T00:15:29;4.75;;;2.55;;
6372;SDS011;3219;51.362;7.074;2023-07-31T00:17:56;6.68;;;2.83;;
6372;SDS011;3219;51.362;7.074;2023-07-31T00:20:22;9.05;;;3.08;;
6372;SDS011;3219;51.362;7.074;2023-07-31T00:22:50;6.72;;;2.20;;
6372;SDS011;3219;51.362;7.074;2023-07-31T00:25:16;7.57;;;2.55;;
6372;SDS011;3219;51.362;7.074;2023-07-31T00:27:43;5.03;;;2.38;;
6372;SDS011;3219;51.362;7.074;2023-07-31T00:30:12;6.72;;;3.45;;
6372;SDS011;3219;51.362;7.074;2023-07-31T00:32:39;5.78;;;2.63;;
6372;SDS011;3219;51.362;7.074;2023-07-31T00:35:06;8.68;;;3.17;;
6372;SDS011;3219;51.362;7.074;2023-07-31T00:37:33;7.60;;;3.35;;
6372;SDS011;3219;51.362;7.074;2023-07-31T00:39:59;6.30;;;3.42;;
6372;SDS011;3219;51.362;7.074;2023-07-31T00:42:28;10.68;;;3.05;;
6372;SDS011;3219;51.362;7.074;2023-07-31T00:44:55;7.90;;;3.10;;
6372;SDS011;3219;51.362;7.074;2023-07-31T00:47:23;10.93;;;3.30;;
6372;SDS011;3219;51.362;7.074;2023-07-31T00:49:50;6.45;;;2.80;;
6372;SDS011;3219;51.362;7.074;2023-07-31T00:52:17;6.00;;;2.50;;
6372;SDS011;3219;51.362;7.074;2023-07-31T00:54:45;10.50;;;4.03;;
6372;SDS011;3219;51.362;7.074;2023-07-31T00:57:12;6.15;;;3.00;;
6372;SDS011;3219;51.362;7.074;2023-07-31T00:59:39;6.93;;;3.00;;
6372;SDS011;3219;51.362;7.074;2023-07-31T01:02:05;6.18;;;3.13;;
6372;SDS011;3219;51.362;7.074;2023-07-31T01:04:34;5.47;;;3.08;;
6372;SDS011;3219;51.362;7.074;2023-07-31T01:07:01;5.65;;;2.25;;
6372;SDS011;3219;51.362;7.074;2023-07-31T01:09:40;9.20;;;3.33;;
6372;SDS011;3219;51.362;7.074;2023-07-31T01:12:13;8.80;;;3.15;;
6372;SDS011;3219;51.362;7.074;2023-07-31T01:14:50;6.60;;;2.70;;
6372;SDS011;3219;51.362;7.074;2023-07-31T01:17:17;6.28;;;2.78;;
6372;SDS011;3219;51.362;7.074;2023-07-31T01:19:45;6.38;;;2.35;;
6372;SDS011;3219;51.362;7.074;2023-07-31T01:22:27;8.02;;;3.10;;
6372;SDS011;3219;51.362;7.074;2023-07-31T01:25:08;5.32;;;3.25;;
6372;SDS011;3219;51.362;7.074;2023-07-31T01:27:50;6.60;;;3.08;;
6372;SDS011;3219;51.362;7.074;2023-07-31T01:30:25;6.53;;;2.50;;
6372;SDS011;3219;51.362;7.074;2023-07-31T01:32:58;5.03;;;2.25;;
6372;SDS011;3219;51.362;7.074;2023-07-31T01:35:27;7.70;;;2.67;;
6372;SDS011;3219;51.362;7.074;2023-07-31T01:37:54;6.95;;;3.10;;
6372;SDS011;3219;51.362;7.074;2023-07-31T01:40:21;6.80;;;3.22;;
6372;SDS011;3219;51.362;7.074;2023-07-31T01:42:49;4.78;;;2.30;;
6372;SDS011;3219;51.362;7.074;2023-07-31T01:45:16;6.65;;;2.63;;
6372;SDS011;3219;51.362;7.074;2023-07-31T01:47:43;6.75;;;2.58;;
6372;SDS011;3219;51.362;7.074;2023-07-31T01:50:10;6.00;;;2.90;;
6372;SDS011;3219;51.362;7.074;2023-07-31T01:52:37;6.97;;;3.33;;
6372;SDS011;3219;51.362;7.074;2023-07-31T01:55:04;7.70;;;2.33;;
6372;SDS011;3219;51.362;7.074;2023-07-31T01:57:31;6.05;;;3.17;;
6372;SDS011;3219;51.362;7.074;2023-07-31T01:59:59;6.82;;;2.60;;
6372;SDS011;3219;51.362;7.074;2023-07-31T02:02:26;5.68;;;2.50;;
6372;SDS011;3219;51.362;7.074;2023-07-31T02:04:52;9.50;;;3.38;;
6372;SDS011;3219;51.362;7.074;2023-07-31T02:07:19;6.78;;;2.63;;
6372;SDS011;3219;51.362;7.074;2023-07-31T02:09:46;8.73;;;2.92;;
6372;SDS011;3219;51.362;7.074;2023-07-31T02:12:13;7.38;;;2.95;;
6372;SDS011;3219;51.362;7.074;2023-07-31T02:14:40;5.50;;;2.00;;
6372;SDS011;3219;51.362;7.074;2023-07-31T02:17:08;8.48;;;3.28;;
6372;SDS011;3219;51.362;7.074;2023-07-31T02:19:35;7.30;;;2.17;;
6372;SDS011;3219;51.362;7.074;2023-07-31T02:22:02;7.47;;;3.25;;
6372;SDS011;3219;51.362;7.074;2023-07-31T02:24:28;6.22;;;3.40;;
6372;SDS011;3219;51.362;7.074;2023-07-31T02:26:56;9.73;;;2.53;;
6372;SDS011;3219;51.362;7.074;2023-07-31T02:29:23;8.40;;;3.58;;
6372;SDS011;3219;51.362;7.074;2023-07-31T02:31:50;6.85;;;2.60;;
6372;SDS011;3219;51.362;7.074;2023-07-31T02:34:18;9.07;;;2.60;;
6372;SDS011;3219;51.362;7.074;2023-07-31T02:36:45;5.25;;;3.47;;
6372;SDS011;3219;51.362;7.074;2023-07-31T02:39:11;7.53;;;2.70;;
6372;SDS011;3219;51.362;7.074;2023-07-31T02:41:38;7.38;;;2.53;;
6372;SDS011;3219;51.362;7.074;2023-07-31T02:44:05;5.95;;;2.53;;
6372;SDS011;3219;51.362;7.074;2023-07-31T02:46:32;7.90;;;3.83;;
6372;SDS011;3219;51.362;7.074;2023-07-31T02:48:58;6.53;;;2.40;;
6372;SDS011;3219;51.362;7.074;2023-07-31T02:51:26;7.20;;;2.85;;
6372;SDS011;3219;51.362;7.074;2023-07-31T02:53:53;6.60;;;3.00;;
6372;SDS011;3219;51.362;7.074;2023-07-31T02:56:20;8.55;;;2.38;;
6372;SDS011;3219;51.362;7.074;2023-07-31T02:58:47;7.72;;;3.10;;
6372;SDS011;3219;51.362;7.074;2023-07-31T03:01:13;7.03;;;2.13;;
6372;SDS011;3219;51.362;7.074;2023-07-31T03:03:40;8.70;;;2.55;;
6372;SDS011;3219;51.362;7.074;2023-07-31T03:06:07;7.55;;;3.13;;
6372;SDS011;3219;51.362;7.074;2023-07-31T03:08:35;8.18;;;3.17;;
6372;SDS011;3219;51.362;7.074;2023-07-31T03:11:02;7.55;;;2.47;;
6372;SDS011;3219;51.362;7.074;2023-07-31T03:13:29;5.15;;;1.98;;
6372;SDS011;3219;51.362;7.074;2023-07-31T03:15:56;8.43;;;3.42;;
6372;SDS011;3219;51.362;7.074;2023-07-31T03:18:22;5.13;;;2.10;;
6372;SDS011;3219;51.362;7.074;2023-07-31T03:20:49;10.07;;;2.35;;
6372;SDS011;3219;51.362;7.074;2023-07-31T03:23:16;10.25;;;2.67;;
6372;SDS011;3219;51.362;7.074;2023-07-31T03:25:56;5.25;;;2.55;;
6372;SDS011;3219;51.362;7.074;2023-07-31T03:28:23;7.07;;;2.70;;
6372;SDS011;3219;51.362;7.074;2023-07-31T03:30:50;5.68;;;2.42;;
6372;SDS011;3219;51.362;7.074;2023-07-31T03:33:17;6.53;;;2.25;;
6372;SDS011;3219;51.362;7.074;2023-07-31T03:35:44;7.25;;;2.53;;
6372;SDS011;3219;51.362;7.074;2023-07-31T03:38:11;8.48;;;3.35;;
6372;SDS011;3219;51.362;7.074;2023-07-31T03:40:38;9.50;;;3.33;;
6372;SDS011;3219;51.362;7.074;2023-07-31T03:43:06;8.07;;;3.20;;
6372;SDS011;3219;51.362;7.074;2023-07-31T03:45:33;5.95;;;2.97;;
6372;SDS011;3219;51.362;7.074;2023-07-31T03:48:00;8.48;;;3.08;;
6372;SDS011;3219;51.362;7.074;2023-07-31T03:50:27;5.50;;;2.15;;
6372;SDS011;3219;51.362;7.074;2023-07-31T03:52:53;7.15;;;2.78;;
6372;SDS011;3219;51.362;7.074;2023-07-31T03:55:20;6.53;;;2.83;;
6372;SDS011;3219;51.362;7.074;2023-07-31T03:57:47;5.88;;;3.53;;
6372;SDS011;3219;51.362;7.074;2023-07-31T04:00:16;7.15;;;2.78;;
6372;SDS011;3219;51.362;7.074;2023-07-31T04:02:42;6.07;;;3.25;;
6372;SDS011;3219;51.362;7.074;2023-07-31T04:05:09;7.63;;;3.53;;
6372;SDS011;3219;51.362;7.074;2023-07-31T04:07:36;6.95;;;2.35;;
6372;SDS011;3219;51.362;7.074;2023-07-31T04:10:03;7.20;;;3.45;;
6372;SDS011;3219;51.362;7.074;2023-07-31T04:12:30;6.40;;;2.47;;
6372;SDS011;3219;51.362;7.074;2023-07-31T04:14:57;8.48;;;3.05;;
6372;SDS011;3219;51.362;7.074;2023-07-31T04:17:25;8.35;;;4.18;;
6372;SDS011;3219;51.362;7.074;2023-07-31T04:19:52;6.40;;;2.78;;
6372;SDS011;3219;51.362;7.074;2023-07-31T04:22:19;9.77;;;2.97;;
6372;SDS011;3219;51.362;7.074;2023-07-31T04:24:45;6.72;;;3.15;;
6372;SDS011;3219;51.362;7.074;2023-07-31T04:27:13;6.85;;;2.67;;
6372;SDS011;3219;51.362;7.074;2023-07-31T04:29:39;6.50;;;3.38;;
6372;SDS011;3219;51.362;7.074;2023-07-31T04:32:07;7.28;;;2.78;;
6372;SDS011;3219;51.362;7.074;2023-07-31T04:34:35;5.43;;;2.55;;
6372;SDS011;3219;51.362;7.074;2023-07-31T04:37:02;8.02;;;3.10;;
6372;SDS011;3219;51.362;7.074;2023-07-31T04:39:29;6.43;;;2.67;;
6372;SDS011;3219;51.362;7.074;2023-07-31T04:41:56;6.15;;;2.88;;
6372;SDS011;3219;51.362;7.074;2023-07-31T04:44:23;8.88;;;3.83;;
6372;SDS011;3219;51.362;7.074;2023-07-31T04:46:49;7.20;;;3.35;;
6372;SDS011;3219;51.362;7.074;2023-07-31T04:49:16;6.72;;;3.08;;
6372;SDS011;3219;51.362;7.074;2023-07-31T04:51:45;8.23;;;3.17;;
6372;SDS011;3219;51.362;7.074;2023-07-31T04:54:12;6.00;;;2.90;;
6372;SDS011;3219;51.362;7.074;2023-07-31T04:56:39;7.57;;;3.47;;
6372;SDS011;3219;51.362;7.074;2023-07-31T04:59:06;5.97;;;3.30;;
6372;SDS011;3219;51.362;7.074;2023-07-31T05:01:33;7.90;;;3.17;;
6372;SDS011;3219;51.362;7.074;2023-07-31T05:04:00;10.38;;;3.75;;
6372;SDS011;3219;51.362;7.074;2023-07-31T05:06:27;7.57;;;2.60;;
6372;SDS011;3219;51.362;7.074;2023-07-31T05:08:55;6.53;;;2.67;;
6372;SDS011;3219;51.362;7.074;2023-07-31T05:11:22;6.65;;;2.92;;
6372;SDS011;3219;51.362;7.074;2023-07-31T12:44:39;3.72;;;2.80;;
6372;SDS011;3219;51.362;7.074;2023-07-31T12:47:06;3.58;;;1.60;;
6372;SDS011;3219;51.362;7.074;2023-07-31T12:49:33;1.65;;;1.30;;
6372;SDS011;3219;51.362;7.074;2023-07-31T12:51:59;2.90;;;1.85;;
6372;SDS011;3219;51.362;7.074;2023-07-31T12:54:26;2.53;;;1.20;;
6372;SDS011;3219;51.362;7.074;2023-07-31T12:56:53;2.80;;;1.67;;
6372;SDS011;3219;51.362;7.074;2023-07-31T12:59:21;2.72;;;2.08;;
6372;SDS011;3219;51.362;7.074;2023-07-31T13:01:48;1.80;;;1.13;;
6372;SDS011;3219;51.362;7.074;2023-07-31T13:04:14;2.35;;;1.52;;
6372;SDS011;3219;51.362;7.074;2023-07-31T13:06:41;2.25;;;2.05;;
6372;SDS011;3219;51.362;7.074;2023-07-31T13:09:08;3.00;;;1.83;;
6372;SDS011;3219;51.362;7.074;2023-07-31T13:11:35;2.90;;;2.47;;
6372;SDS011;3219;51.362;7.074;2023-07-31T13:14:02;2.38;;;1.23;;
6372;SDS011;3219;51.362;7.074;2023-07-31T13:16:30;2.10;;;1.42;;
6372;SDS011;3219;51.362;7.074;2023-07-31T13:18:57;3.00;;;1.83;;
6372;SDS011;3219;51.362;7.074;2023-07-31T13:21:24;2.22;;;1.58;;
6372;SDS011;3219;51.362;7.074;2023-07-31T13:23:51;2.42;;;1.85;;
6372;SDS011;3219;51.362;7.074;2023-07-31T13:26:17;2.33;;;1.95;;
6372;SDS011;3219;51.362;7.074;2023-07-31T13:28:44;3.03;;;2.38;;
6372;SDS011;3219;51.362;7.074;2023-07-31T13:31:11;3.17;;;1.80;;
6372;SDS011;3219;51.362;7.074;2023-07-31T13:33:39;3.85;;;2.10;;
6372;SDS011;3219;51.362;7.074;2023-07-31T13:36:06;3.35;;;1.85;;
6372;SDS011;3219;51.362;7.074;2023-07-31T13:38:33;3.08;;;1.80;;
6372;SDS011;3219;51.362;7.074;2023-07-31T13:40:59;3.03;;;1.88;;
6372;SDS011;3219;51.362;7.074;2023-07-31T13:43:26;3.47;;;2.42;;
6372;SDS011;3219;51.362;7.074;2023-07-31T13:45:53;3.47;;;2.80;;
6372;SDS011;3219;51.362;7.074;2023-07-31T13:48:19;4.75;;;2.53;;
6372;SDS011;3219;51.362;7.074;2023-07-31T13:50:47;4.03;;;2.17;;
6372;SDS011;3219;51.362;7.074;2023-07-31T13:53:14;4.45;;;2.60;;
6372;SDS011;3219;51.362;7.074;2023-07-31T13:55:41;5.00;;;2.63;;
6372;SDS011;3219;51.362;7.074;2023-07-31T13:58:10;3.53;;;1.90;;
6372;SDS011;3219;51.362;7.074;2023-07-31T14:00:37;5.05;;;2.67;;
6372;SDS011;3219;51.362;7.074;2023-07-31T14:03:03;7.35;;;3.33;;
6372;SDS011;3219;51.362;7.074;2023-07-31T14:05:30;5.15;;;2.03;;
6372;SDS011;3219;51.362;7.074;2023-07-31T14:07:59;3.90;;;2.72;;
6372;SDS011;3219;51.362;7.074;2023-07-31T14:10:26;4.72;;;2.85;;
6372;SDS011;3219;51.362;7.074;2023-07-31T14:12:53;4.53;;;2.95;;
6372;SDS011;3219;51.362;7.074;2023-07-31T14:15:20;4.93;;;3.05;;
6372;SDS011;3219;51.362;7.074;2023-07-31T14:17:47;4.50;;;2.65;;
6372;SDS011;3219;51.362;7.074;2023-07-31T14:20:14;4.80;;;2.85;;
6372;SDS011;3219;51.362;7.074;2023-07-31T14:22:41;5.85;;;2.75;;
6372;SDS011;3219;51.362;7.074;2023-07-31T14:25:09;5.55;;;3.08;;
6372;SDS011;3219;51.362;7.074;2023-07-31T14:27:36;4.40;;;2.60;;
6372;SDS011;3219;51.362;7.074;2023-07-31T14:30:03;4.95;;;2.75;;
6372;SDS011;3219;51.362;7.074;2023-07-31T14:32:30;6.65;;;3.25;;
6372;SDS011;3219;51.362;7.074;2023-07-31T14:34:57;7.07;;;3.58;;
6372;SDS011;3219;51.362;7.074;2023-07-31T14:37:25;5.05;;;3.13;;
6372;SDS011;3219;51.362;7.074;2023-07-31T14:39:52;4.13;;;3.15;;
6372;SDS011;3219;51.362;7.074;2023-07-31T14:42:20;3.00;;;2.03;;
6372;SDS011;3219;51.362;7.074;2023-07-31T14:44:47;3.53;;;2.30;;
6372;SDS011;3219;51.362;7.074;2023-07-31T14:47:14;5.20;;;2.08;;
6372;SDS011;3219;51.362;7.074;2023-07-31T14:49:40;4.20;;;2.58;;
6372;SDS011;3219;51.362;7.074;2023-07-31T14:52:07;4.97;;;2.80;;
6372;SDS011;3219;51.362;7.074;2023-07-31T14:54:34;3.30;;;2.35;;
6372;SDS011;3219;51.362;7.074;2023-07-31T14:57:01;4.90;;;2.67;;
6372;SDS011;3219;51.362;7.074;2023-07-31T14:59:29;5.13;;;2.50;;
6372;SDS011;3219;51.362;7.074;2023-07-31T15:01:56;4.30;;;2.30;;
6372;SDS011;3219;51.362;7.074;2023-07-31T15:04:23;6.15;;;2.88;;
6372;SDS011;3219;51.362;7.074;2023-07-31T15:06:49;7.72;;;2.97;;
6372;SDS011;3219;51.362;7.074;2023-07-31T15:09:16;4.78;;;3.05;;
6372;SDS011;3219;51.362;7.074;2023-07-31T15:11:43;4.63;;;2.83;;
6372;SDS011;3219;51.362;7.074;2023-07-31T15:14:10;4.35;;;2.80;;
6372;SDS011;3219;51.362;7.074;2023-07-31T15:16:38;5.03;;;2.78;;
6372;SDS011;3219;51.362;7.074;2023-07-31T15:19:05;4.32;;;2.35;;
6372;SDS011;3219;51.362;7.074;2023-07-31T15:21:31;4.60;;;2.05;;
6372;SDS011;3219;51.362;7.074;2023-07-31T15:23:58;4.20;;;3.00;;
6372;SDS011;3219;51.362;7.074;2023-07-31T15:26:25;6.03;;;2.70;;
6372;SDS011;3219;51.362;7.074;2023-07-31T15:28:55;3.70;;;2.67;;
6372;SDS011;3219;51.362;7.074;2023-07-31T15:31:27;4.60;;;3.45;;
6372;SDS011;3219;51.362;7.074;2023-07-31T15:33:55;4.20;;;2.67;;
6372;SDS011;3219;51.362;7.074;2023-07-31T15:36:22;4.45;;;3.13;;
6372;SDS011;3219;51.362;7.074;2023-07-31T15:38:49;5.72;;;3.45;;
6372;SDS011;3219;51.362;7.074;2023-07-31T15:41:17;6.10;;;3.10;;
6372;SDS011;3219;51.362;7.074;2023-07-31T15:43:44;5.70;;;3.35;;
6372;SDS011;3219;51.362;7.074;2023-07-31T15:46:11;4.68;;;3.58;;
6372;SDS011;3219;51.362;7.074;2023-07-31T15:48:39;5.10;;;3.53;;
6372;SDS011;3219;51.362;7.074;2023-07-31T15:51:07;5.63;;;3.17;;
6372;SDS011;3219;51.362;7.074;2023-07-31T15:53:34;6.40;;;4.38;;
6372;SDS011;3219;51.362;7.074;2023-07-31T15:56:01;5.93;;;2.92;;
6372;SDS011;3219;51.362;7.074;2023-07-31T15:58:27;7.28;;;3.17;;
6372;SDS011;3219;51.362;7.074;2023-07-31T16:00:54;5.90;;;3.25;;
6372;SDS011;3219;51.362;7.074;2023-07-31T16:03:21;5.38;;;3.00;;
6372;SDS011;3219;51.362;7.074;2023-07-31T16:05:48;4.95;;;2.95;;
6372;SDS011;3219;51.362;7.074;2023-07-31T16:08:16;5.60;;;4.22;;
6372;SDS011;3219;51.362;7.074;2023-07-31T16:10:43;5.22;;;2.58;;
6372;SDS011;3219;51.362;7.074;2023-07-31T16:13:09;4.43;;;2.95;;
6372;SDS011;3219;51.362;7.074;2023-07-31T16:15:36;5.95;;;3.10;;
6372;SDS011;3219;51.362;7.074;2023-07-31T16:18:03;6.28;;;2.63;;
6372;SDS011;3219;51.362;7.074;2023-07-31T16:20:30;4.97;;;2.60;;
6372;SDS011;3219;51.362;7.074;2023-07-31T16:22:56;5.32;;;3.03;;
6372;SDS011;3219;51.362;7.074;2023-07-31T16:25:24;4.35;;;2.15;;
6372;SDS011;3219;51.362;7.074;2023-07-31T16:27:51;4.10;;;2.20;;
6372;SDS011;3219;51.362;7.074;2023-07-31T16:30:18;3.28;;;2.35;;
6372;SDS011;3219;51.362;7.074;2023-07-31T16:32:46;3.92;;;2.97;;
6372;SDS011;3219;51.362;7.074;2023-07-31T16:37:41;4.30;;;2.30;;
6372;SDS011;3219;51.362;7.074;2023-07-31T16:40:09;4.47;;;2.38;;
6372;SDS011;3219;51.362;7.074;2023-07-31T16:42:38;3.17;;;1.95;;
6372;SDS011;3219;51.362;7.074;2023-07-31T16:45:05;4.85;;;2.47;;
6372;SDS011;3219;51.362;7.074;2023-07-31T16:47:32;5.28;;;2.80;;
6372;SDS011;3219;51.362;7.074;2023-07-31T16:49:59;5.53;;;4.00;;
6372;SDS011;3219;51.362;7.074;2023-07-31T16:52:26;4.25;;;2.72;;
6372;SDS011;3219;51.362;7.074;2023-07-31T16:54:53;2.58;;;1.90;;
6372;SDS011;3219;51.362;7.074;2023-07-31T16:57:20;2.95;;;1.92;;
6372;SDS011;3219;51.362;7.074;2023-07-31T16:59:50;3.50;;;2.38;;
6372;SDS011;3219;51.362;7.074;2023-07-31T17:02:20;3.55;;;1.83;;
6372;SDS011;3219;51.362;7.074;2023-07-31T17:04:47;3.10;;;2.22;;
6372;SDS011;3219;51.362;7.074;2023-07-31T17:07:14;4.93;;;2.40;;
6372;SDS011;3219;51.362;7.074;2023-07-31T17:09:42;3.47;;;2.10;;
6372;SDS011;3219;51.362;7.074;2023-07-31T17:12:10;3.35;;;1.92;;
6372;SDS011;3219;51.362;7.074;2023-07-31T17:14:37;3.50;;;1.92;;
6372;SDS011;3219;51.362;7.074;2023-07-31T17:17:05;3.50;;;1.90;;
6372;SDS011;3219;51.362;7.074;2023-07-31T17:19:32;4.05;;;2.25;;
6372;SDS011;3219;51.362;7.074;2023-07-31T17:22:00;3.63;;;1.75;;
6372;SDS011;3219;51.362;7.074;2023-07-31T17:24:27;1.77;;;1.25;;
6372;SDS011;3219;51.362;7.074;2023-07-31T17:26:54;4.88;;;2.03;;
6372;SDS011;3219;51.362;7.074;2023-07-31T17:29:26;3.78;;;2.20;;
6372;SDS011;3219;51.362;7.074;2023-07-31T17:31:54;2.83;;;1.88;;
6372;SDS011;3219;51.362;7.074;2023-07-31T17:34:22;3.75;;;2.53;;
6372;SDS011;3219;51.362;7.074;2023-07-31T17:36:49;2.97;;;1.08;;
6372;SDS011;3219;51.362;7.074;2023-07-31T17:39:16;4.40;;;2.28;;
6372;SDS011;3219;51.362;7.074;2023-07-31T17:41:45;4.00;;;2.20;;
6372;SDS011;3219;51.362;7.074;2023-07-31T17:44:12;3.10;;;1.65;;
6372;SDS011;3219;51.362;7.074;2023-07-31T17:46:39;3.92;;;2.00;;
6372;SDS011;3219;51.362;7.074;2023-07-31T17:49:06;3.75;;;2.22;;
6372;SDS011;3219;51.362;7.074;2023-07-31T17:51:36;3.50;;;1.85;;
6372;SDS011;3219;51.362;7.074;2023-07-31T17:54:03;2.38;;;1.52;;
6372;SDS011;3219;51.362;7.074;2023-07-31T17:56:31;2.03;;;1.38;;
6372;SDS011;3219;51.362;7.074;2023-07-31T17:59:02;4.55;;;1.42;;
6372;SDS011;3219;51.362;7.074;2023-07-31T18:01:29;2.75;;;1.52;;
6372;SDS011;3219;51.362;7.074;2023-07-31T18:03:56;2.67;;;1.80;;
6372;SDS011;3219;51.362;7.074;2023-07-31T18:06:25;3.00;;;1.90;;
6372;SDS011;3219;51.362;7.074;2023-07-31T18:08:54;3.13;;;2.03;;
6372;SDS011;3219;51.362;7.074;2023-07-31T18:11:22;2.50;;;1.50;;
6372;SDS011;3219;51.362;7.074;2023-07-31T18:13:51;2.60;;;1.50;;
6372;SDS011;3219;51.362;7.074;2023-07-31T18:16:19;3.67;;;1.30;;
6372;SDS011;3219;51.362;7.074;2023-07-31T18:18:46;2.00;;;1.38;;
6372;SDS011;3219;51.362;7.074;2023-07-31T18:21:13;2.00;;;1.02;;
6372;SDS011;3219;51.362;7.074;2023-07-31T18:23:40;3.28;;;1.27;;
6372;SDS011;3219;51.362;7.074;2023-07-31T18:26:09;1.90;;;1.25;;
6372;SDS011;3219;51.362;7.074;2023-07-31T18:28:36;1.85;;;1.58;;
6372;SDS011;3219;51.362;7.074;2023-07-31T18:31:03;1.70;;;1.52;;
6372;SDS011;3219;51.362;7.074;2023-07-31T18:33:31;2.38;;;1.38;;
6372;SDS011;3219;51.362;7.074;2023-07-31T18:35:58;3.35;;;1.45;;
6372;SDS011;3219;51.362;7.074;2023-07-31T18:38:25;2.35;;;1.50;;
6372;SDS011;3219;51.362;7.074;2023-07-31T18:40:56;2.20;;;1.33;;
6372;SDS011;3219;51.362;7.074;2023-07-31T18:43:25;1.92;;;1.42;;
6372;SDS011;3219;51.362;7.074;2023-07-31T18:45:52;3.30;;;1.77;;
6372;SDS011;3219;51.362;7.074;2023-07-31T18:48:19;2.22;;;1.52;;
6372;SDS011;3219;51.362;7.074;2023-07-31T18:50:46;2.17;;;1.38;;
6372;SDS011;3219;51.362;7.074;2023-07-31T18:53:13;2.10;;;1.73;;
6372;SDS011;3219;51.362;7.074;2023-07-31T18:55:42;2.38;;;1.55;;
6372;SDS011;3219;51.362;7.074;2023-07-31T18:58:09;2.67;;;1.77;;
6372;SDS011;3219;51.362;7.074;2023-07-31T19:00:39;2.20;;;1.55;;
6372;SDS011;3219;51.362;7.074;2023-07-31T19:03:06;4.72;;;1.55;;
6372;SDS011;3219;51.362;7.074;2023-07-31T19:05:35;1.95;;;1.73;;
6372;SDS011;3219;51.362;7.074;2023-07-31T19:08:03;2.28;;;1.27;;
6372;SDS011;3219;51.362;7.074;2023-07-31T19:10:30;1.83;;;1.70;;
6372;SDS011;3219;51.362;7.074;2023-07-31T19:12:57;2.25;;;1.45;;
6372;SDS011;3219;51.362;7.074;2023-07-31T19:15:24;2.30;;;1.73;;
6372;SDS011;3219;51.362;7.074;2023-07-31T19:17:52;2.63;;;1.60;;
6372;SDS011;3219;51.362;7.074;2023-07-31T19:20:21;2.22;;;1.45;;
6372;SDS011;3219;51.362;7.074;2023-07-31T19:22:48;1.60;;;0.73;;
6372;SDS011;3219;51.362;7.074;2023-07-31T19:25:15;1.58;;;0.93;;
6372;SDS011;3219;51.362;7.074;2023-07-31T19:27:42;2.50;;;1.23;;
6372;SDS011;3219;51.362;7.074;2023-07-31T19:30:10;1.50;;;1.02;;
6372;SDS011;3219;51.362;7.074;2023-07-31T19:35:08;2.03;;;1.90;;
6372;SDS011;3219;51.362;7.074;2023-07-31T19:37:35;1.75;;;0.95;;
6372;SDS011;3219;51.362;7.074;2023-07-31T19:40:02;1.45;;;1.25;;
6372;SDS011;3219;51.362;7.074;2023-07-31T19:42:30;2.10;;;1.75;;
6372;SDS011;3219;51.362;7.074;2023-07-31T19:45:00;2.10;;;1.63;;
6372;SDS011;3219;51.362;7.074;2023-07-31T19:47:28;1.73;;;1.08;;
6372;SDS011;3219;51.362;7.074;2023-07-31T19:49:57;2.10;;;1.65;;
6372;SDS011;3219;51.362;7.074;2023-07-31T19:52:25;2.03;;;1.70;;
6372;SDS011;3219;51.362;7.074;2023-07-31T19:54:52;2.75;;;1.67;;
6372;SDS011;3219;51.362;7.074;2023-07-31T19:57:21;2.40;;;2.00;;
6372;SDS011;3219;51.362;7.074;2023-07-31T19:59:48;2.45;;;1.70;;
6372;SDS011;3219;51.362;7.074;2023-07-31T20:02:15;3.70;;;1.58;;
6372;SDS011;3219;51.362;7.074;2023-07-31T20:04:44;3.15;;;2.28;;
6372;SDS011;3219;51.362;7.074;2023-07-31T20:07:11;2.47;;;1.90;;
6372;SDS011;3219;51.362;7.074;2023-07-31T20:09:41;2.55;;;1.67;;
6372;SDS011;3219;51.362;7.074;2023-07-31T20:12:08;2.45;;;2.25;;
6372;SDS011;3219;51.362;7.074;2023-07-31T20:14:37;3.95;;;1.85;;
6372;SDS011;3219;51.362;7.074;2023-07-31T20:17:05;2.88;;;2.03;;
6372;SDS011;3219;51.362;7.074;2023-07-31T20:19:32;3.42;;;1.88;;
6372;SDS011;3219;51.362;7.074;2023-07-31T20:22:01;2.80;;;2.08;;
6372;SDS011;3219;51.362;7.074;2023-07-31T20:24:28;2.75;;;2.05;;
6372;SDS011;3219;51.362;7.074;2023-07-31T20:26:58;2.40;;;1.98;;
6372;SDS011;3219;51.362;7.074;2023-07-31T20:29:26;3.17;;;2.17;;
6372;SDS011;3219;51.362;7.074;2023-07-31T20:31:54;1.83;;;1.67;;
6372;SDS011;3219;51.362;7.074;2023-07-31T20:34:23;2.63;;;2.08;;
6372;SDS011;3219;51.362;7.074;2023-07-31T20:36:52;2.90;;;2.15;;
6372;SDS011;3219;51.362;7.074;2023-07-31T20:39:20;3.88;;;3.53;;
6372;SDS011;3219;51.362;7.074;2023-07-31T20:41:48;2.58;;;2.38;;
6372;SDS011;3219;51.362;7.074;2023-07-31T20:44:18;3.15;;;2.20;;
6372;SDS011;3219;51.362;7.074;2023-07-31T20:46:46;3.42;;;2.40;;
6372;SDS011;3219;51.362;7.074;2023-07-31T20:49:15;4.70;;;2.67;;
6372;SDS011;3219;51.362;7.074;2023-07-31T20:51:43;2.83;;;2.45;;
6372;SDS011;3219;51.362;7.074;2023-07-31T20:54:13;3.55;;;3.17;;
6372;SDS011;3219;51.362;7.074;2023-07-31T20:56:42;2.65;;;1.45;;
6372;SDS011;3219;51.362;7.074;2023-07-31T20:59:10;4.35;;;2.88;;
6372;SDS011;3219;51.362;7.074;2023-07-31T21:01:39;3.92;;;2.60;;
6372;SDS011;3219;51.362;7.074;2023-07-31T21:04:08;2.25;;;1.45;;
6372;SDS011;3219;51.362;7.074;2023-07-31T21:06:37;3.00;;;2.65;;
6372;SDS011;3219;51.362;7.074;2023-07-31T21:09:06;3.47;;;2.20;;
6372;SDS011;3219;51.362;7.074;2023-07-31T21:11:34;1.88;;;1.65;;
6372;SDS011;3219;51.362;7.074;2023-07-31T21:14:03;3.50;;;1.65;;
6372;SDS011;3219;51.362;7.074;2023-07-31T21:16:30;1.48;;;1.25;;
6372;SDS011;3219;51.362;7.074;2023-07-31T21:19:00;2.20;;;1.67;;
6372;SDS011;3219;51.362;7.074;2023-07-31T21:21:27;2.33;;;1.58;;
6372;SDS011;3219;51.362;7.074;2023-07-31T21:23:56;2.65;;;1.67;;
6372;SDS011;3219;51.362;7.074;2023-07-31T21:26:23;2.40;;;1.25;;
6372;SDS011;3219;51.362;7.074;2023-07-31T21:28:52;3.10;;;1.77;;
6372;SDS011;3219;51.362;7.074;2023-07-31T21:31:19;2.10;;;1.67;;
6372;SDS011;3219;51.362;7.074;2023-07-31T21:33:48;1.48;;;1.30;;
6372;SDS011;3219;51.362;7.074;2023-07-31T21:36:17;2.53;;;1.27;;
6372;SDS011;3219;51.362;7.074;2023-07-31T21:38:46;1.55;;;1.08;;
6372;SDS011;3219;51.362;7.074;2023-07-31T21:41:13;3.05;;;1.17;;
6372;SDS011;3219;51.362;7.074;2023-07-31T21:43:41;2.28;;;1.63;;
6372;SDS011;3219;51.362;7.074;2023-07-31T21:46:08;2.22;;;1.70;;
6372;SDS011;3219;51.362;7.074;2023-07-31T21:48:35;2.35;;;1.85;;
6372;SDS011;3219;51.362;7.074;2023-07-31T21:51:03;3.60;;;1.85;;
6372;SDS011;3219;51.362;7.074;2023-07-31T21:53:33;2.15;;;1.80;;
6372;SDS011;3219;51.362;7.074;2023-07-31T21:56:00;2.83;;;2.63;;
6372;SDS011;3219;51.362;7.074;2023-07-31T21:58:29;1.92;;;1.17;;
6372;SDS011;3219;51.362;7.074;2023-07-31T22:00:56;2.15;;;1.42;;
6372;SDS011;3219;51.362;7.074;2023-07-31T22:03:25;4.97;;;1.88;;
6372;SDS011;3219;51.362;7.074;2023-07-31T22:05:52;2.30;;;1.60;;
6372;SDS011;3219;51.362;7.074;2023-07-31T22:08:21;2.92;;;1.85;;
6372;SDS011;3219;51.362;7.074;2023-07-31T22:10:49;2.40;;;1.20;;
6372;SDS011;3219;51.362;7.074;2023-07-31T22:13:18;2.95;;;1.40;;
6372;SDS011;3219;51.362;7.074;2023-07-31T22:15:47;2.17;;;0.88;;
6372;SDS011;3219;51.362;7.074;2023-07-31T22:18:16;1.60;;;1.30;;
6372;SDS011;3219;51.362;7.074;2023-07-31T22:20:47;1.73;;;1.63;;
6372;SDS011;3219;51.362;7.074;2023-07-31T22:23:16;2.22;;;1.38;;
6372;SDS011;3219;51.362;7.074;2023-07-31T22:25:45;1.95;;;1.55;;
6372;SDS011;3219;51.362;7.074;2023-07-31T22:28:15;1.80;;;1.10;;
6372;SDS011;3219;51.362;7.074;2023-07-31T22:30:44;1.50;;;1.15;;
6372;SDS011;3219;51.362;7.074;2023-07-31T22:33:13;1.27;;;0.95;;
6372;SDS011;3219;51.362;7.074;2023-07-31T22:35:42;2.08;;;1.08;;
6372;SDS011;3219;51.362;7.074;2023-07-31T22:38:11;0.88;;;0.80;;
6372;SDS011;3219;51.362;7.074;2023-07-31T22:40:40;1.05;;;0.98;;
6372;SDS011;3219;51.362;7.074;2023-07-31T22:43:08;1.10;;;0.88;;
6372;SDS011;3219;51.362;7.074;2023-07-31T22:45:43;0.52;;;0.52;;
6372;SDS011;3219;51.362;7.074;2023-07-31T22:48:12;1.17;;;1.05;;
6372;SDS011;3219;51.362;7.074;2023-07-31T22:50:41;1.20;;;1.10;;
6372;SDS011;3219;51.362;7.074;2023-07-31T22:53:10;1.52;;;0.93;;